Time;durP1;ratioP1;P1;durP2;ratioP2;P2;SDS_P1;SDS_P2;PMS_P1;PMS_P2;Temp;Humidity;BMP_temperature;BMP_pressure;BME280_temperature;BME280_humidity;BME280_pressure;Samples;Min_cycle;Max_cycle;Signal;HPM_P1;HPM_P2
2023/02/26 00:04:10;;;;;;;9.07;8.00;;;-0.30;99.90;;;;;;2614552;54;20150;-75
2023/02/26 00:10:00;;;;;;;8.40;7.80;;;-0.50;99.90;;;;;;2614677;54;20125;-75
2023/02/26 00:15:51;;;;;;;8.17;7.57;;;-0.50;99.90;;;;;;2614892;54;20411;-74
2023/02/26 00:19:01;;;;;;;11.70;8.17;;;-0.40;99.90;;;;;;2614019;51;20396;-75
2023/02/26 00:21:28;;;;;;;8.70;7.80;;;-0.40;99.90;;;;;;2613708;54;20712;-75
2023/02/26 00:27:16;;;;;;;8.70;8.00;;;-0.20;99.90;;;;;;2614481;54;20404;-74
2023/02/26 00:33:05;;;;;;;7.80;7.00;;;-0.10;99.90;;;;;;2614269;54;20641;-75
2023/02/26 00:45:29;;;;;;;7.60;7.00;;;0.10;99.90;;;;;;2616113;54;20369;-75
2023/02/26 00:57:41;;;;;;;8.33;7.53;;;0.80;96.10;;;;;;2616723;39;20809;-75
2023/02/26 01:03:31;;;;;;;8.03;7.53;;;0.80;93.40;;;;;;2616338;39;20556;-75
2023/02/26 01:09:32;;;;;;;7.80;7.33;;;0.70;94.80;;;;;;2616213;54;20351;-75
2023/02/26 01:15:20;;;;;;;8.20;7.70;;;0.80;96.50;;;;;;2616076;54;20418;-74
2023/02/26 01:24:36;;;;;;;7.93;7.30;;;0.80;95.00;;;;;;2616403;54;20423;-74
2023/02/26 01:30:24;;;;;;;8.27;7.60;;;0.80;95.80;;;;;;2615895;54;20374;-75
2023/02/26 01:42:32;;;;;;;7.80;7.30;;;0.70;88.60;;;;;;2615772;54;20403;-75
2023/02/26 01:54:55;;;;;;;7.83;7.30;;;0.70;73.40;;;;;;2615066;54;20957;-74
2023/02/26 02:00:42;;;;;;;8.17;7.67;;;0.70;70.00;;;;;;2615215;54;20130;-75
2023/02/26 02:06:30;;;;;;;8.50;8.00;;;0.60;64.80;;;;;;2615206;54;20355;-76
2023/02/26 02:13:02;;;;;;;8.23;7.60;;;0.30;68.30;;;;;;2614945;54;20150;-75
2023/02/26 02:19:15;;;;;;;7.90;7.40;;;0.20;67.50;;;;;;2615031;39;20764;-75
2023/02/26 02:28:33;;;;;;;11.83;8.00;;;0.10;69.90;;;;;;2615281;54;20407;-73
2023/02/26 02:47:09;;;;;;;8.37;7.77;;;-0.30;77.20;;;;;;2613647;54;20362;-75
2023/02/26 03:05:46;;;;;;;8.20;7.37;;;-0.70;92.30;;;;;;2613217;54;20463;-74
2023/02/26 03:11:35;;;;;;;8.07;7.57;;;-0.90;99.90;;;;;;2613249;54;20933;-75
2023/02/26 03:17:35;;;;;;;7.60;7.10;;;-0.90;99.90;;;;;;2613526;39;20748;-75
2023/02/26 03:29:53;;;;;;;14.03;9.00;;;-1.20;99.90;;;;;;2613486;54;20374;-74
2023/02/26 03:35:50;;;;;;;8.83;7.90;;;-1.10;99.90;;;;;;2613141;54;20405;-74
2023/02/26 03:41:47;;;;;;;7.90;7.37;;;-1.00;99.90;;;;;;2614488;54;21000;-75
2023/02/26 03:47:38;;;;;;;7.10;6.30;;;-1.10;99.90;;;;;;2614606;54;20916;-74
2023/02/26 03:53:31;;;;;;;8.00;7.50;;;-1.30;99.90;;;;;;2614738;54;20342;-69
2023/02/26 03:59:19;;;;;;;7.20;6.50;;;-1.20;99.90;;;;;;2614643;54;20391;-75
2023/02/26 04:11:38;;;;;;;7.00;6.17;;;-1.10;99.90;;;;;;2613122;54;20400;-74
2023/02/26 04:17:26;;;;;;;6.47;5.97;;;-1.10;99.90;;;;;;2614346;54;20369;-74
2023/02/26 04:23:14;;;;;;;7.53;6.87;;;-1.00;99.90;;;;;;2614677;54;20142;-74
2023/02/26 04:29:01;;;;;;;7.27;6.67;;;-1.10;99.90;;;;;;2614458;54;20221;-74
2023/02/26 04:32:20;;;;;;;6.27;5.90;;;-1.20;99.90;;;;;;2614347;54;20933;-75
2023/02/26 04:38:08;;;;;;;8.37;6.10;;;-1.10;99.90;;;;;;2614470;54;20447;-73
2023/02/26 04:43:55;;;;;;;6.50;6.20;;;-0.90;99.90;;;;;;2615329;39;20783;-74
2023/02/26 04:49:43;;;;;;;7.10;6.13;;;-0.80;99.90;;;;;;2614526;54;20228;-74
2023/02/26 04:55:31;;;;;;;8.73;6.77;;;-0.80;96.30;;;;;;2614541;54;20131;-74
2023/02/26 05:01:18;;;;;;;7.97;7.30;;;-0.90;96.00;;;;;;2614498;54;20151;-75
2023/02/26 05:07:06;;;;;;;6.50;6.00;;;-0.90;98.90;;;;;;2614445;54;20158;-74
2023/02/26 05:12:54;;;;;;;6.90;6.50;;;-1.00;99.10;;;;;;2614827;39;20529;-74
2023/02/26 05:18:41;;;;;;;7.00;6.40;;;-1.10;98.10;;;;;;2614609;54;20653;-74
2023/02/26 05:24:29;;;;;;;6.27;5.93;;;-1.20;99.90;;;;;;2614417;54;20126;-74
2023/02/26 05:27:50;;;;;;;7.13;6.57;;;-1.40;99.90;;;;;;2613626;47;20412;-75
2023/02/26 05:30:16;;;;;;;7.43;6.83;;;-1.50;99.90;;;;;;2615013;54;20149;-74
2023/02/26 05:36:05;;;;;;;9.10;8.20;;;-1.40;99.90;;;;;;2615014;54;20464;-73
2023/02/26 05:41:54;;;;;;;7.93;6.53;;;-1.40;99.90;;;;;;2614843;54;20368;-73
2023/02/26 05:47:42;;;;;;;6.60;6.20;;;-1.40;99.90;;;;;;2615259;54;20394;-74
2023/02/26 05:53:30;;;;;;;6.10;5.80;;;-1.20;95.70;;;;;;2615114;54;20395;-73
2023/02/26 05:59:18;;;;;;;8.93;7.00;;;-1.20;93.70;;;;;;2615243;54;20254;-73
2023/02/26 06:05:06;;;;;;;7.33;6.83;;;-1.10;92.00;;;;;;2614970;54;20386;-73
2023/02/26 06:10:54;;;;;;;7.83;7.07;;;-1.20;91.30;;;;;;2614881;54;20394;-74
2023/02/26 06:16:42;;;;;;;10.20;7.27;;;-1.20;92.70;;;;;;2614856;54;20142;-74
2023/02/26 06:22:30;;;;;;;9.50;6.50;;;-1.30;95.90;;;;;;2614959;54;20130;-74
2023/02/26 06:32:17;;;;;;;11.90;6.40;;;-1.40;98.60;;;;;;2614616;54;20370;-74
2023/02/26 06:38:05;;;;;;;7.47;6.87;;;-1.30;96.30;;;;;;2614971;54;20363;-74
2023/02/26 06:43:52;;;;;;;7.80;6.47;;;-1.30;98.20;;;;;;2615460;39;20497;-74
2023/02/26 06:49:40;;;;;;;6.37;5.87;;;-1.20;94.00;;;;;;2614893;54;20110;-74
2023/02/26 06:55:28;;;;;;;7.40;6.17;;;-1.20;92.50;;;;;;2614997;54;20705;-75
2023/02/26 07:01:16;;;;;;;7.10;6.50;;;-1.10;89.40;;;;;;2614885;54;20146;-74
2023/02/26 07:07:04;;;;;;;8.17;6.47;;;-1.10;92.70;;;;;;2614952;54;20118;-74
2023/02/26 07:12:51;;;;;;;8.33;6.43;;;-1.00;88.30;;;;;;2614681;54;20716;-73
2023/02/26 07:18:39;;;;;;;8.73;6.43;;;-0.80;87.10;;;;;;2615240;39;20620;-74
2023/02/26 07:24:27;;;;;;;7.27;6.53;;;-0.60;85.40;;;;;;2614878;54;20122;-74
2023/02/26 07:27:49;;;;;;;7.80;7.20;;;0.40;50.90;;;;;;2614037;47;20391;-74
2023/02/26 07:30:16;;;;;;;8.00;7.50;;;1.50;29.40;;;;;;2613936;47;20167;-75
2023/02/26 07:36:04;;;;;;;8.20;7.80;;;2.50;16.20;;;;;;2614859;54;20452;-75
2023/02/26 07:41:52;;;;;;;8.80;8.40;;;2.30;13.80;;;;;;2614704;54;20405;-74
2023/02/26 07:47:39;;;;;;;9.63;8.70;;;1.20;24.70;;;;;;2614636;54;20889;-74
2023/02/26 07:53:27;;;;;;;11.53;10.30;;;2.10;21.80;;;;;;2614704;54;20170;-75
2023/02/26 07:59:15;;;;;;;10.10;9.40;;;3.60;7.50;;;;;;2614675;54;20259;-75
2023/02/26 08:05:03;;;;;;;11.33;10.60;;;3.20;3.80;;;;;;2614828;54;20266;-74
2023/02/26 08:10:51;;;;;;;11.00;10.37;;;3.90;1.30;;;;;;2614825;54;20427;-75
2023/02/26 08:16:39;;;;;;;10.10;9.60;;;4.00;1.00;;;;;;2615317;54;20866;-74
2023/02/26 08:22:27;;;;;;;10.83;10.27;;;5.00;1.00;;;;;;2614523;54;20153;-75
2023/02/26 08:32:21;;;;;;;13.77;10.97;;;4.90;1.00;;;;;;2614574;54;20407;-74
2023/02/26 08:38:09;;;;;;;11.10;10.60;;;5.40;1.00;;;;;;2614546;54;20406;-75
2023/02/26 08:44:00;;;;;;;11.00;10.40;;;5.90;1.00;;;;;;2614444;54;20170;-75
2023/02/26 08:49:47;;;;;;;11.40;10.80;;;6.00;1.00;;;;;;2614812;54;20988;-75
2023/02/26 08:55:35;;;;;;;10.33;9.83;;;5.80;1.00;;;;;;2614786;39;20197;-74
2023/02/26 09:01:23;;;;;;;10.30;9.63;;;6.20;1.00;;;;;;2614510;54;20114;-74
2023/02/26 09:07:10;;;;;;;10.77;10.17;;;6.30;1.00;;;;;;2615171;54;20118;-75
2023/02/26 09:12:58;;;;;;;10.03;9.53;;;6.40;1.00;;;;;;2615342;54;20231;-74
2023/02/26 09:18:46;;;;;;;9.57;9.03;;;7.20;1.00;;;;;;2615467;54;20330;-75
2023/02/26 09:24:34;;;;;;;9.80;9.40;;;8.00;1.00;;;;;;2615189;54;20180;-74
2023/02/26 09:30:21;;;;;;;9.70;9.10;;;7.10;1.00;;;;;;2614952;54;20740;-74
2023/02/26 09:36:09;;;;;;;10.30;9.70;;;6.90;1.00;;;;;;2615185;54;20138;-74
2023/02/26 09:48:47;;;;;;;11.17;10.57;;;8.60;1.00;;;;;;2614058;39;20897;-74
2023/02/26 10:07:33;;;;;;;10.90;10.20;;;8.00;1.00;;;;;;2613825;39;20884;-74
2023/02/26 10:13:31;;;;;;;10.00;9.60;;;8.60;1.00;;;;;;2613474;54;20383;-74
2023/02/26 10:19:25;;;;;;;11.07;10.40;;;8.50;1.00;;;;;;2613434;54;20407;-75
2023/02/26 10:41:27;;;;;;;10.50;10.10;;;7.70;1.00;;;;;;2614767;54;20449;-74
2023/02/26 10:44:30;;;;;;;10.47;9.90;;;7.10;1.00;;;;;;2614760;54;20976;-74
2023/02/26 10:57:25;;;;;;;10.97;10.47;;;8.30;1.00;;;;;;2613655;54;20407;-74
2023/02/26 11:03:18;;;;;;;9.63;9.23;;;8.90;1.00;;;;;;2613720;54;20892;-73
2023/02/26 11:15:45;;;;;;;11.03;10.40;;;7.70;1.00;;;;;;2613098;54;20403;-75
2023/02/26 11:21:39;;;;;;;11.57;10.97;;;8.50;1.00;;;;;;2613033;54;20360;-74
2023/02/26 11:27:33;;;;;;;10.37;9.63;;;7.80;1.00;;;;;;2614443;54;20400;-75
2023/02/26 11:39:38;;;;;;;10.90;10.50;;;9.50;1.00;;;;;;2614494;54;20367;-74
2023/02/26 11:45:26;;;;;;;11.03;10.63;;;10.70;1.00;;;;;;2614686;54;20125;-74
2023/02/26 11:51:24;;;;;;;11.50;10.80;;;10.20;1.00;;;;;;2614430;54;20158;-75
2023/02/26 12:03:33;;;;;;;10.07;9.67;;;10.50;1.00;;;;;;2614676;54;20516;-75
2023/02/26 12:09:21;;;;;;;10.40;9.90;;;11.80;1.00;;;;;;2614500;54;20435;-74
2023/02/26 12:28:17;;;;;;;9.97;9.57;;;12.10;1.00;;;;;;2614538;54;20406;-74
2023/02/26 13:22:58;;;;;;;9.83;9.43;;;10.30;1.00;;;;;;2612861;39;20882;-74
2023/02/26 13:28:52;;;;;;;10.70;10.20;;;8.60;1.00;;;;;;2613134;39;20803;-74
2023/02/26 13:35:06;;;;;;;11.40;11.00;;;6.70;1.00;;;;;;2612410;54;20449;-74
2023/02/26 13:53:56;;;;;;;11.37;10.87;;;10.20;1.00;;;;;;2614889;54;20432;-70
2023/02/26 13:59:46;;;;;;;11.77;11.00;;;9.60;1.00;;;;;;2614716;54;20930;-69
2023/02/26 14:12:02;;;;;;;11.70;11.00;;;9.20;1.00;;;;;;2614601;54;20363;-69
2023/02/26 14:24:08;;;;;;;10.80;10.40;;;10.60;1.00;;;;;;2614978;54;20414;-70
2023/02/26 14:29:56;;;;;;;11.20;10.73;;;9.30;1.00;;;;;;2614534;54;20446;-69
2023/02/26 14:35:50;;;;;;;11.10;10.60;;;12.20;1.00;;;;;;2614780;54;20174;-70
2023/02/26 14:41:40;;;;;;;11.37;10.87;;;10.20;1.00;;;;;;2614564;54;20439;-69
2023/02/26 14:47:28;;;;;;;11.27;10.70;;;10.70;1.00;;;;;;2614632;54;20479;-69
2023/02/26 15:00:11;;;;;;;11.87;11.23;;;11.20;1.00;;;;;;2614861;54;20351;-69
2023/02/26 15:06:30;;;;;;;12.17;11.57;;;8.90;1.00;;;;;;2614785;54;20378;-69
2023/02/26 15:12:33;;;;;;;11.63;11.23;;;9.70;1.00;;;;;;2615015;54;20427;-70
2023/02/26 15:25:29;;;;;;;10.77;10.27;;;10.00;1.00;;;;;;2613782;31;20914;-70
2023/02/26 15:31:19;;;;;;;11.50;11.00;;;10.80;1.00;;;;;;2613093;54;20972;-70
2023/02/26 15:40:33;;;;;;;11.03;10.53;;;8.50;1.00;;;;;;2613427;39;20943;-69
2023/02/26 15:46:26;;;;;;;11.07;10.57;;;8.00;1.00;;;;;;2613120;54;20953;-70
2023/02/26 15:52:18;;;;;;;12.13;11.40;;;6.50;1.00;;;;;;2613095;54;20371;-71
2023/02/26 15:58:06;;;;;;;12.80;11.90;;;7.40;1.00;;;;;;2613602;54;20507;-69
2023/02/26 16:04:01;;;;;;;12.70;11.70;;;7.30;1.00;;;;;;2614981;39;20748;-69
2023/02/26 16:09:50;;;;;;;12.40;11.70;;;7.70;1.00;;;;;;2614433;54;20479;-70
2023/02/26 16:15:39;;;;;;;12.13;11.37;;;7.00;1.00;;;;;;2614452;54;20363;-69
2023/02/26 16:21:35;;;;;;;11.57;10.93;;;7.20;1.00;;;;;;2614612;46;20434;-70
2023/02/26 16:27:29;;;;;;;12.53;11.83;;;7.10;1.00;;;;;;2614188;54;20780;-69
2023/02/26 16:33:17;;;;;;;12.03;11.53;;;6.70;1.00;;;;;;2614480;54;20346;-70
2023/02/26 16:39:06;;;;;;;12.93;12.20;;;5.80;1.00;;;;;;2614550;54;20474;-70
2023/02/26 16:42:09;;;;;;;12.27;11.67;;;5.20;1.00;;;;;;2614202;54;20419;-69
2023/02/26 16:57:21;;;;;;;12.83;12.30;;;4.10;1.00;;;;;;2614386;39;20735;-70
2023/02/26 17:03:22;;;;;;;13.77;13.07;;;3.80;1.00;;;;;;2614233;54;20904;-70
2023/02/26 17:15:50;;;;;;;13.20;12.37;;;3.50;1.00;;;;;;2614382;54;20387;-70
2023/02/26 17:21:48;;;;;;;12.53;11.93;;;3.30;1.00;;;;;;2614149;54;20399;-70
2023/02/26 17:27:36;;;;;;;13.20;12.47;;;3.10;1.00;;;;;;2615564;46;20396;-69
2023/02/26 17:33:23;;;;;;;13.97;12.97;;;3.00;1.00;;;;;;2614999;54;20130;-71
2023/02/26 17:35:59;;;;;;;13.27;12.60;;;3.00;1.00;;;;;;2615334;39;20521;-70
2023/02/26 17:38:26;;;;;;;13.70;12.97;;;3.00;1.00;;;;;;2614891;54;20641;-70
2023/02/26 17:44:14;;;;;;;14.10;13.30;;;3.00;1.00;;;;;;2615002;54;20363;-69
2023/02/26 17:56:34;;;;;;;14.90;13.93;;;3.00;1.00;;;;;;2615629;39;20872;-70
2023/02/26 18:02:26;;;;;;;13.87;12.97;;;3.10;1.00;;;;;;2614876;54;20371;-69
2023/02/26 18:14:45;;;;;;;12.97;12.27;;;2.90;1.00;;;;;;2615125;54;20347;-69
2023/02/26 18:20:33;;;;;;;13.00;12.17;;;2.70;1.00;;;;;;2614600;54;20374;-70
2023/02/26 18:26:24;;;;;;;13.90;12.90;;;2.70;1.00;;;;;;2615161;39;20537;-70
2023/02/26 18:32:13;;;;;;;13.50;12.70;;;2.80;1.00;;;;;;2615157;54;20964;-69
2023/02/26 18:38:01;;;;;;;12.57;11.87;;;3.00;1.00;;;;;;2614810;54;20405;-69
2023/02/26 18:43:49;;;;;;;13.97;13.07;;;3.00;1.00;;;;;;2615027;46;20382;-70
2023/02/26 18:49:37;;;;;;;14.50;13.40;;;3.00;1.00;;;;;;2615080;39;20502;-69
2023/02/26 18:55:25;;;;;;;13.20;12.50;;;3.10;1.00;;;;;;2614858;54;20153;-70
2023/02/26 19:01:12;;;;;;;13.50;12.77;;;3.00;1.00;;;;;;2614764;54;20167;-69
2023/02/26 19:07:00;;;;;;;12.47;11.77;;;3.00;1.00;;;;;;2614826;54;20157;-70
2023/02/26 19:12:49;;;;;;;14.20;13.20;;;2.90;1.00;;;;;;2615130;54;20363;-70
2023/02/26 19:18:37;;;;;;;13.53;12.73;;;3.00;1.00;;;;;;2614933;54;20378;-70
2023/02/26 19:24:25;;;;;;;13.90;13.00;;;3.10;1.00;;;;;;2614829;54;20154;-70
2023/02/26 19:30:12;;;;;;;14.60;13.60;;;3.00;1.00;;;;;;2614344;54;20168;-70
2023/02/26 19:36:00;;;;;;;15.40;14.53;;;3.00;1.00;;;;;;2614493;54;20226;-70
2023/02/26 19:41:49;;;;;;;15.67;14.50;;;3.00;1.00;;;;;;2615066;54;20155;-69
2023/02/26 19:47:37;;;;;;;13.90;13.10;;;3.00;1.00;;;;;;2614187;54;20944;-70
2023/02/26 19:53:25;;;;;;;13.20;12.57;;;2.80;1.00;;;;;;2614651;54;20252;-68
2023/02/26 19:59:12;;;;;;;13.67;13.00;;;2.80;1.00;;;;;;2614549;54;20330;-69
2023/02/26 20:05:00;;;;;;;14.37;13.60;;;2.80;1.00;;;;;;2614746;54;20202;-69
2023/02/26 20:10:52;;;;;;;13.67;12.83;;;2.80;1.00;;;;;;2614438;54;20130;-69
2023/02/26 20:16:40;;;;;;;12.70;12.10;;;2.80;1.00;;;;;;2614607;39;20529;-70
2023/02/26 20:22:28;;;;;;;14.00;13.17;;;2.80;1.00;;;;;;2614322;54;20130;-69
2023/02/26 20:28:19;;;;;;;14.53;13.73;;;2.80;1.00;;;;;;2614602;54;20122;-70
2023/02/26 20:34:06;;;;;;;14.17;13.47;;;2.80;1.00;;;;;;2614696;54;20481;-70
2023/02/26 20:39:54;;;;;;;14.00;13.23;;;2.70;1.00;;;;;;2614405;54;20142;-69
2023/02/26 20:45:42;;;;;;;13.63;12.83;;;2.50;1.70;;;;;;2614741;54;20146;-70
2023/02/26 20:51:30;;;;;;;14.90;13.90;;;2.20;3.60;;;;;;2614527;54;20346;-70
2023/02/26 20:57:18;;;;;;;14.37;13.53;;;2.00;6.50;;;;;;2614583;54;20129;-70
2023/02/26 21:03:06;;;;;;;14.67;13.70;;;1.80;9.70;;;;;;2615198;54;20142;-70
2023/02/26 21:08:54;;;;;;;14.53;13.37;;;1.60;13.90;;;;;;2615719;39;20747;-70
2023/02/26 21:14:42;;;;;;;15.87;14.60;;;1.40;18.00;;;;;;2615209;54;20131;-70
2023/02/26 21:20:30;;;;;;;14.47;13.53;;;1.00;23.00;;;;;;2615985;31;20821;-69
2023/02/26 21:26:20;;;;;;;14.40;13.63;;;0.80;35.50;;;;;;2615033;54;20432;-69
2023/02/26 21:32:09;;;;;;;14.60;13.60;;;0.50;48.70;;;;;;2615100;54;20398;-70
2023/02/26 21:41:20;;;;;;;13.77;12.97;;;0.10;60.40;;;;;;2614973;54;20366;-70
2023/02/26 21:47:08;;;;;;;14.00;12.90;;;-0.10;58.20;;;;;;2615247;54;20367;-70
2023/02/26 21:52:56;;;;;;;14.03;12.83;;;-0.20;61.70;;;;;;2614942;54;20426;-69
2023/02/26 21:58:43;;;;;;;14.63;13.40;;;-0.50;68.10;;;;;;2615501;54;20949;-69
2023/02/26 22:04:32;;;;;;;14.10;13.10;;;-0.70;75.00;;;;;;2615298;54;20170;-68
2023/02/26 22:10:20;;;;;;;13.87;12.97;;;-0.80;83.50;;;;;;2614702;54;20422;-69
2023/02/26 22:16:08;;;;;;;13.57;12.67;;;-0.80;89.00;;;;;;2615016;54;20122;-69
2023/02/26 22:21:57;;;;;;;14.63;13.37;;;-0.90;93.30;;;;;;2615095;54;20408;-69
2023/02/26 22:27:44;;;;;;;13.30;12.30;;;-1.00;98.10;;;;;;2614785;54;20423;-69
2023/02/26 22:33:32;;;;;;;14.53;12.13;;;-1.00;99.90;;;;;;2614792;54;20123;-69
2023/02/26 22:36:43;;;;;;;13.23;12.20;;;-1.00;99.90;;;;;;2615504;39;20470;-69
2023/02/26 22:39:09;;;;;;;13.50;12.40;;;-1.00;99.90;;;;;;2614750;54;20157;-69
2023/02/26 22:42:13;;;;;;;13.73;12.60;;;-1.20;99.90;;;;;;2614280;46;20889;-68
2023/02/26 22:44:38;;;;;;;14.77;13.43;;;-1.20;99.90;;;;;;2614761;54;20692;-69
2023/02/26 22:50:26;;;;;;;12.53;11.53;;;-1.20;99.90;;;;;;2615040;54;20122;-69
2023/02/26 22:56:14;;;;;;;12.77;11.67;;;-1.50;99.90;;;;;;2615010;54;20135;-69
2023/02/26 23:02:02;;;;;;;13.27;12.30;;;-1.50;99.90;;;;;;2614557;54;20126;-69
2023/02/26 23:07:49;;;;;;;12.50;11.50;;;-1.60;99.90;;;;;;2615329;39;20724;-70
2023/02/26 23:13:37;;;;;;;13.47;12.17;;;-1.70;99.90;;;;;;2614769;54;20141;-69
2023/02/26 23:19:25;;;;;;;12.77;11.70;;;-1.80;99.90;;;;;;2614660;54;20662;-68
2023/02/26 23:25:13;;;;;;;21.63;12.40;;;-1.90;99.90;;;;;;2614888;54;20412;-68
2023/02/26 23:31:00;;;;;;;11.40;10.30;;;-1.90;99.90;;;;;;2615024;39;20550;-68
2023/02/26 23:36:48;;;;;;;13.13;11.93;;;-1.90;99.90;;;;;;2614774;54;20153;-69
2023/02/26 23:42:36;;;;;;;12.40;11.33;;;-1.90;99.90;;;;;;2614794;54;20242;-69
2023/02/26 23:48:26;;;;;;;12.80;11.70;;;-1.80;99.90;;;;;;2614690;54;20122;-68
2023/02/26 23:54:13;;;;;;;12.30;11.23;;;-1.40;99.90;;;;;;2615323;39;20743;-70
